Aérodrome :
LOGIN :

S'inscrire | Disclaimer

   EN    FR    IT 

 










Légende :    VFR   VFR Marginal   IFR   IFR Intensif   IFR Très Intensif
Visi : 
Plafond : 
>= 8 km
>= 3000ft
5 à 8 km
1000 à 3000 ft
1500m à 5 km
500 à 1000 ft
800 à 1500m
200 à 500 ft
< 800m
< 200 ft
Symboles :   Orages  Brouillard  Fortes neiges  Fortes précipitations  Vent > 20 kt
SIGMETs :   Divers  Orages  Givrage  Turbulence  Onde Orograph.  Cendres Volcan.







- Altitude de l'aérodrome : 587 ft
- Code IATA : XCR
- Voir les cartes d'approche


LFOK - Chalons Vatry

DERNIER METAR :
  • 211430Z AUTO 21006KT 180V240 9999 FEW011 15/07 Q1028 NOSIG

METARs EXPIRÉS :
  • 211400Z AUTO 22005KT 180V240 CAVOK 15/07 Q1029 NOSIG
  • 211330Z AUTO 24004KT 170V320 CAVOK 15/06 Q1029 NOSIG
  • 211300Z AUTO 24004KT 180V310 CAVOK 14/06 Q1029 NOSIG
  • 211230Z AUTO 23005KT 190V270 CAVOK 14/07 Q1029 NOSIG
  • 211200Z AUTO 23003KT 180V300 CAVOK 14/07 Q1029 NOSIG
  • 211130Z AUTO 24004KT 200V290 CAVOK 13/07 Q1029 NOSIG

TAF TAF LFOK
Valide du 21 à 12h jusqu'au 22 à 12h UTC


211100Z 2112/2212 20005KT CAVOK
BECMG 2122/2124 1500 BCFG
BECMG 2200/2203 0600 FG VV///
TEMPO 2203/2209 0200
BECMG 2210/2212 4000 BR BKN005
Pas de NOTAMs connus pour ce terrain.



MET'MAP, la Météo Aéronautique d'un coup d'oeil ! - Copyright ORBIFLY Décembre 2007 - Disclaimer

ORBIFLY MET'MAP TEAM :

Programmation & Développement : Alexandra Zaïnal
Conception & Développement : Baudouin d'Aumeries
Co-Programmation & Développement : Marc-Olivier Méhu
Soutien technique & logistique : Manuel Goepfert

Contact : metmap@orbifly.com




SOURCES & CREDITS :

   NOAA